DLH3509 EDDF-EDDP
Flight info
| Callsign | DLH3509 |
|---|---|
| Flight time | 0h 40m |
| Altitude | 23000 |
| Route | SULUS7S/18 SULUS Z12 LASGA/N0416F220 T953 VOCIM/N0410F210 T954 GOXLI GOXLI1R |
| Aircraft | A320/M-SDE3FGHIRWY/LB1 |
Departure
| Time | 2026-05-05 09:12 |
|---|---|
| Airport | Frankfurt Main Airport (EDDF) |
Arrival
| Time | 2026-05-05 09:52 |
|---|---|
| Airport | Leipzig/Halle Airport (EDDP) |
| Time | Latitude | Longitude | Altitude | Speed | Heading |
|---|---|---|---|---|---|
| 2026-05-05 08:38 | 50.04431 | 8.56331 | 365 ft | 0 kts | 170° |
| 2026-05-05 09:01 | 50.04439 | 8.56329 | 359 ft | 4 kts | 170° |
| 2026-05-05 09:01 | 50.04466 | 8.56321 | 359 ft | 4 kts | 170° |
| 2026-05-05 09:01 | 50.04487 | 8.56315 | 363 ft | 4 kts | 183° |
| 2026-05-05 09:02 | 50.04503 | 8.56331 | 363 ft | 4 kts | 248° |
| 2026-05-05 09:02 | 50.04501 | 8.56320 | 359 ft | 4 kts | 249° |
| 2026-05-05 09:02 | 50.04491 | 8.56280 | 360 ft | 4 kts | 249° |
| 2026-05-05 09:02 | 50.04482 | 8.56241 | 362 ft | 4 kts | 249° |
| 2026-05-05 09:03 | 50.04472 | 8.56202 | 359 ft | 4 kts | 249° |
| 2026-05-05 09:03 | 50.04463 | 8.56162 | 360 ft | 4 kts | 249° |
| 2026-05-05 09:03 | 50.04454 | 8.56123 | 362 ft | 4 kts | 249° |
| 2026-05-05 09:03 | 50.04452 | 8.56115 | 365 ft | 0 kts | 249° |
| 2026-05-05 09:05 | 50.04439 | 8.56068 | 363 ft | 9 kts | 241° |
| 2026-05-05 09:06 | 50.04390 | 8.56035 | 359 ft | 10 kts | 175° |
| 2026-05-05 09:06 | 50.04312 | 8.56078 | 359 ft | 12 kts | 147° |
| 2026-05-05 09:06 | 50.04293 | 8.56131 | 359 ft | 0 kts | 104° |
| 2026-05-05 09:06 | 50.04292 | 8.56158 | 359 ft | 9 kts | 92° |
| 2026-05-05 09:07 | 50.04242 | 8.56240 | 363 ft | 17 kts | 157° |
| 2026-05-05 09:07 | 50.04133 | 8.56268 | 360 ft | 14 kts | 214° |
| 2026-05-05 09:07 | 50.04084 | 8.56099 | 363 ft | 20 kts | 250° |
| 2026-05-05 09:07 | 50.04033 | 8.55886 | 360 ft | 22 kts | 249° |
| 2026-05-05 09:08 | 50.03979 | 8.55659 | 361 ft | 23 kts | 249° |
| 2026-05-05 09:08 | 50.03922 | 8.55423 | 361 ft | 24 kts | 249° |
| 2026-05-05 09:08 | 50.03862 | 8.55170 | 361 ft | 25 kts | 250° |
| 2026-05-05 09:08 | 50.03798 | 8.54906 | 361 ft | 27 kts | 249° |
| 2026-05-05 09:09 | 50.03733 | 8.54632 | 361 ft | 27 kts | 250° |
| 2026-05-05 09:09 | 50.03665 | 8.54349 | 363 ft | 28 kts | 250° |
| 2026-05-05 09:09 | 50.03596 | 8.54061 | 359 ft | 29 kts | 249° |
| 2026-05-05 09:09 | 50.03524 | 8.53761 | 358 ft | 30 kts | 249° |
| 2026-05-05 09:10 | 50.03452 | 8.53462 | 358 ft | 29 kts | 250° |
| 2026-05-05 09:10 | 50.03384 | 8.53172 | 361 ft | 28 kts | 250° |
| 2026-05-05 09:10 | 50.03317 | 8.52889 | 363 ft | 25 kts | 249° |
| 2026-05-05 09:10 | 50.03253 | 8.52663 | 362 ft | 18 kts | 229° |
| 2026-05-05 09:11 | 50.03133 | 8.52596 | 359 ft | 21 kts | 180° |
| 2026-05-05 09:11 | 50.02810 | 8.52600 | 359 ft | 81 kts | 179° |
| 2026-05-05 09:11 | 50.02037 | 8.52609 | 359 ft | 139 kts | 179° |
| 2026-05-05 09:11 | 50.00915 | 8.52618 | 448 ft | 176 kts | 180° |
| 2026-05-05 09:12 | 49.99655 | 8.52631 | 1032 ft | 182 kts | 180° |
| 2026-05-05 09:12 | 49.98324 | 8.52640 | 1541 ft | 202 kts | 179° |
| 2026-05-05 09:12 | 49.96906 | 8.53149 | 1958 ft | 223 kts | 148° |
| 2026-05-05 09:12 | 49.95837 | 8.54910 | 2691 ft | 228 kts | 115° |
| 2026-05-05 09:13 | 49.95235 | 8.57246 | 3528 ft | 231 kts | 116° |
| 2026-05-05 09:13 | 49.94518 | 8.59457 | 4329 ft | 233 kts | 114° |
| 2026-05-05 09:13 | 49.94085 | 8.61963 | 4858 ft | 253 kts | 100° |
| 2026-05-05 09:13 | 49.93871 | 8.64792 | 5415 ft | 269 kts | 96° |
| 2026-05-05 09:14 | 49.93542 | 8.67672 | 6246 ft | 273 kts | 111° |
| 2026-05-05 09:14 | 49.92666 | 8.70279 | 7058 ft | 274 kts | 130° |
| 2026-05-05 09:14 | 49.91276 | 8.72300 | 7876 ft | 275 kts | 146° |
| 2026-05-05 09:14 | 49.89706 | 8.74027 | 8709 ft | 278 kts | 144° |
| 2026-05-05 09:15 | 49.88302 | 8.76133 | 9517 ft | 285 kts | 129° |
| 2026-05-05 09:15 | 49.87253 | 8.78737 | 10177 ft | 295 kts | 121° |
| 2026-05-05 09:15 | 49.86215 | 8.81629 | 10431 ft | 318 kts | 121° |
| 2026-05-05 09:15 | 49.85087 | 8.84756 | 10649 ft | 342 kts | 121° |
| 2026-05-05 09:16 | 49.83887 | 8.88069 | 10909 ft | 361 kts | 121° |
| 2026-05-05 09:16 | 49.82644 | 8.91485 | 11473 ft | 368 kts | 121° |
| 2026-05-05 09:16 | 49.81379 | 8.94964 | 12142 ft | 372 kts | 121° |
| 2026-05-05 09:16 | 49.80098 | 8.98483 | 12812 ft | 377 kts | 121° |
| 2026-05-05 09:17 | 49.78803 | 9.02037 | 13499 ft | 381 kts | 121° |
| 2026-05-05 09:17 | 49.77507 | 9.05582 | 14111 ft | 385 kts | 122° |
| 2026-05-05 09:17 | 49.76291 | 9.09368 | 14707 ft | 390 kts | 114° |
| 2026-05-05 09:17 | 49.75519 | 9.13377 | 15298 ft | 395 kts | 106° |
| 2026-05-05 09:18 | 49.74866 | 9.17537 | 15905 ft | 397 kts | 106° |
| 2026-05-05 09:18 | 49.74211 | 9.21671 | 16515 ft | 399 kts | 107° |
| 2026-05-05 09:18 | 49.73582 | 9.25586 | 17067 ft | 401 kts | 107° |
| 2026-05-05 09:18 | 49.73008 | 9.29125 | 17547 ft | 403 kts | 107° |
| 2026-05-05 09:19 | 49.72322 | 9.33335 | 18144 ft | 405 kts | 107° |
| 2026-05-05 09:19 | 49.71625 | 9.37600 | 18627 ft | 408 kts | 107° |
| 2026-05-05 09:19 | 49.70924 | 9.41862 | 19090 ft | 411 kts | 107° |
| 2026-05-05 09:19 | 49.70215 | 9.46174 | 19550 ft | 414 kts | 107° |
| 2026-05-05 09:20 | 49.69512 | 9.50448 | 19980 ft | 417 kts | 107° |
| 2026-05-05 09:20 | 49.68793 | 9.54806 | 20371 ft | 422 kts | 107° |
| 2026-05-05 09:20 | 49.68063 | 9.59224 | 20784 ft | 425 kts | 107° |
| 2026-05-05 09:20 | 49.67517 | 9.63741 | 21208 ft | 431 kts | 98° |
| 2026-05-05 09:21 | 49.67459 | 9.68314 | 21633 ft | 437 kts | 88° |
| 2026-05-05 09:21 | 49.67941 | 9.73094 | 22068 ft | 442 kts | 77° |
| 2026-05-05 09:21 | 49.68748 | 9.77638 | 22478 ft | 445 kts | 76° |
| 2026-05-05 09:21 | 49.69574 | 9.82271 | 22811 ft | 448 kts | 76° |
| 2026-05-05 09:22 | 49.70402 | 9.86946 | 22880 ft | 455 kts | 76° |
| 2026-05-05 09:22 | 49.71331 | 9.91690 | 22864 ft | 467 kts | 71° |
| 2026-05-05 09:22 | 49.72678 | 9.96280 | 22877 ft | 472 kts | 62° |
| 2026-05-05 09:22 | 49.74460 | 10.00567 | 22872 ft | 477 kts | 55° |
| 2026-05-05 09:23 | 49.76404 | 10.04744 | 22879 ft | 478 kts | 54° |
| 2026-05-05 09:23 | 49.78352 | 10.08934 | 22865 ft | 478 kts | 55° |
| 2026-05-05 09:23 | 49.80293 | 10.13119 | 22867 ft | 477 kts | 55° |
| 2026-05-05 09:23 | 49.82201 | 10.17254 | 22868 ft | 477 kts | 55° |
| 2026-05-05 09:24 | 49.84129 | 10.21441 | 22867 ft | 477 kts | 55° |
| 2026-05-05 09:24 | 49.86053 | 10.25636 | 22862 ft | 477 kts | 55° |
| 2026-05-05 09:24 | 49.87982 | 10.29852 | 22864 ft | 477 kts | 55° |
| 2026-05-05 09:24 | 49.89902 | 10.34052 | 22857 ft | 477 kts | 55° |
| 2026-05-05 09:25 | 49.91825 | 10.38271 | 22858 ft | 477 kts | 55° |
| 2026-05-05 09:25 | 49.93098 | 10.41060 | 22859 ft | 477 kts | 55° |
| 2026-05-05 09:25 | 49.95644 | 10.46636 | 22852 ft | 477 kts | 55° |
| 2026-05-05 09:25 | 49.97567 | 10.50855 | 22865 ft | 476 kts | 55° |
| 2026-05-05 09:26 | 49.99477 | 10.55063 | 22839 ft | 477 kts | 56° |
| 2026-05-05 09:26 | 50.01368 | 10.59247 | 22853 ft | 477 kts | 56° |
| 2026-05-05 09:26 | 50.03279 | 10.63481 | 22842 ft | 478 kts | 56° |
| 2026-05-05 09:27 | 50.03939 | 10.64939 | 22839 ft | 478 kts | 55° |
| 2026-05-05 09:27 | 50.05854 | 10.69172 | 22762 ft | 478 kts | 55° |
| 2026-05-05 09:27 | 50.07819 | 10.73348 | 22874 ft | 479 kts | 51° |
| 2026-05-05 09:27 | 50.09284 | 10.75945 | 22865 ft | 480 kts | 48° |
| 2026-05-05 09:28 | 50.11550 | 10.79873 | 22877 ft | 480 kts | 48° |
| 2026-05-05 09:28 | 50.13786 | 10.83754 | 22875 ft | 480 kts | 48° |
| 2026-05-05 09:28 | 50.16019 | 10.87638 | 22876 ft | 479 kts | 48° |
| 2026-05-05 09:28 | 50.18242 | 10.91512 | 22876 ft | 479 kts | 48° |
| 2026-05-05 09:29 | 50.20460 | 10.95385 | 22880 ft | 479 kts | 48° |
| 2026-05-05 09:29 | 50.22679 | 10.99271 | 22877 ft | 479 kts | 48° |
| 2026-05-05 09:29 | 50.24895 | 11.03157 | 22878 ft | 479 kts | 48° |
| 2026-05-05 09:29 | 50.27110 | 11.07049 | 22884 ft | 479 kts | 48° |
| 2026-05-05 09:30 | 50.29324 | 11.10940 | 22870 ft | 479 kts | 48° |
| 2026-05-05 09:30 | 50.31655 | 11.14685 | 22867 ft | 479 kts | 40° |
| 2026-05-05 09:30 | 50.34330 | 11.17741 | 22878 ft | 479 kts | 30° |
| 2026-05-05 09:30 | 50.37318 | 11.20045 | 22880 ft | 477 kts | 20° |
| 2026-05-05 09:31 | 50.40461 | 11.21524 | 22882 ft | 475 kts | 10° |
| 2026-05-05 09:31 | 50.43740 | 11.22156 | 22882 ft | 472 kts | 359° |
| 2026-05-05 09:31 | 50.47016 | 11.22007 | 22884 ft | 470 kts | 355° |
| 2026-05-05 09:31 | 50.50293 | 11.21746 | 22882 ft | 470 kts | 355° |
| 2026-05-05 09:32 | 50.53570 | 11.21494 | 22887 ft | 471 kts | 355° |
| 2026-05-05 09:32 | 50.56845 | 11.21248 | 22899 ft | 471 kts | 355° |
| 2026-05-05 09:32 | 50.60117 | 11.21148 | 22898 ft | 472 kts | 1° |
| 2026-05-05 09:32 | 50.63349 | 11.21777 | 22899 ft | 474 kts | 10° |
| 2026-05-05 09:33 | 50.66534 | 11.23178 | 22903 ft | 476 kts | 18° |
| 2026-05-05 09:33 | 50.69589 | 11.25253 | 22902 ft | 477 kts | 24° |
| 2026-05-05 09:33 | 50.72610 | 11.27455 | 22901 ft | 477 kts | 23° |
| 2026-05-05 09:33 | 50.75626 | 11.29652 | 22858 ft | 477 kts | 24° |
| 2026-05-05 09:34 | 50.78644 | 11.31854 | 22887 ft | 477 kts | 23° |
| 2026-05-05 09:34 | 50.81635 | 11.34036 | 22878 ft | 477 kts | 23° |
| 2026-05-05 09:34 | 50.84655 | 11.36244 | 22874 ft | 478 kts | 23° |
| 2026-05-05 09:34 | 50.87680 | 11.38463 | 22873 ft | 478 kts | 23° |
| 2026-05-05 09:35 | 50.90714 | 11.40692 | 22876 ft | 478 kts | 23° |
| 2026-05-05 09:35 | 50.96771 | 11.45161 | 22886 ft | 479 kts | 23° |
| 2026-05-05 09:35 | 50.99799 | 11.47401 | 22887 ft | 479 kts | 23° |
| 2026-05-05 09:36 | 51.02784 | 11.49604 | 22896 ft | 479 kts | 23° |
| 2026-05-05 09:36 | 51.05794 | 11.51896 | 22883 ft | 480 kts | 27° |
| 2026-05-05 09:36 | 51.08603 | 11.54789 | 22882 ft | 483 kts | 36° |
| 2026-05-05 09:36 | 51.11101 | 11.58365 | 22899 ft | 484 kts | 46° |
| 2026-05-05 09:37 | 51.13231 | 11.62558 | 22892 ft | 485 kts | 55° |
| 2026-05-05 09:37 | 51.14927 | 11.67196 | 22893 ft | 483 kts | 63° |
| 2026-05-05 09:37 | 51.16433 | 11.71813 | 22896 ft | 467 kts | 63° |
| 2026-05-05 09:37 | 51.17926 | 11.76374 | 22891 ft | 462 kts | 62° |
| 2026-05-05 09:38 | 51.19414 | 11.80924 | 22890 ft | 461 kts | 62° |
| 2026-05-05 09:38 | 51.20898 | 11.85472 | 22907 ft | 461 kts | 63° |
| 2026-05-05 09:38 | 51.22235 | 11.90131 | 22882 ft | 460 kts | 71° |
| 2026-05-05 09:38 | 51.23097 | 11.95033 | 22886 ft | 459 kts | 81° |
| 2026-05-05 09:39 | 51.23482 | 12.00079 | 22868 ft | 458 kts | 87° |
| 2026-05-05 09:39 | 51.23717 | 12.05089 | 22391 ft | 459 kts | 87° |
| 2026-05-05 09:39 | 51.23960 | 12.10160 | 20697 ft | 461 kts | 87° |
| 2026-05-05 09:39 | 51.24208 | 12.15309 | 18948 ft | 466 kts | 88° |
| 2026-05-05 09:40 | 51.24455 | 12.20487 | 17442 ft | 464 kts | 88° |
| 2026-05-05 09:40 | 51.24698 | 12.25586 | 16113 ft | 455 kts | 87° |
| 2026-05-05 09:40 | 51.24936 | 12.30567 | 14900 ft | 444 kts | 87° |
| 2026-05-05 09:40 | 51.25226 | 12.35378 | 13750 ft | 435 kts | 82° |
| 2026-05-05 09:41 | 51.25970 | 12.40008 | 12520 ft | 426 kts | 71° |
| 2026-05-05 09:41 | 51.27105 | 12.44230 | 12028 ft | 399 kts | 67° |
| 2026-05-05 09:41 | 51.28180 | 12.48155 | 11845 ft | 369 kts | 68° |
| 2026-05-05 09:41 | 51.29147 | 12.51756 | 11703 ft | 343 kts | 68° |
| 2026-05-05 09:42 | 51.30047 | 12.55131 | 11449 ft | 325 kts | 68° |
| 2026-05-05 09:42 | 51.30868 | 12.58398 | 10907 ft | 318 kts | 74° |
| 2026-05-05 09:42 | 51.31333 | 12.61839 | 10420 ft | 312 kts | 86° |
| 2026-05-05 09:42 | 51.31476 | 12.65250 | 10201 ft | 306 kts | 89° |
| 2026-05-05 09:43 | 51.31612 | 12.68657 | 10076 ft | 308 kts | 89° |
| 2026-05-05 09:43 | 51.31762 | 12.72085 | 9921 ft | 306 kts | 88° |
| 2026-05-05 09:43 | 51.32060 | 12.75424 | 9485 ft | 313 kts | 72° |
| 2026-05-05 09:43 | 51.33254 | 12.78328 | 9094 ft | 312 kts | 41° |
| 2026-05-05 09:44 | 51.35074 | 12.80072 | 8795 ft | 303 kts | 15° |
| 2026-05-05 09:44 | 51.37112 | 12.80442 | 8250 ft | 292 kts | 354° |
| 2026-05-05 09:44 | 51.39146 | 12.80247 | 7570 ft | 291 kts | 354° |
| 2026-05-05 09:44 | 51.41117 | 12.79768 | 6941 ft | 283 kts | 335° |
| 2026-05-05 09:45 | 51.42678 | 12.77970 | 6458 ft | 276 kts | 306° |
| 2026-05-05 09:45 | 51.43468 | 12.75277 | 6103 ft | 270 kts | 278° |
| 2026-05-05 09:45 | 51.43493 | 12.72248 | 5474 ft | 276 kts | 265° |
| 2026-05-05 09:45 | 51.43334 | 12.69119 | 4788 ft | 286 kts | 265° |
| 2026-05-05 09:46 | 51.43186 | 12.65979 | 4554 ft | 276 kts | 265° |
| 2026-05-05 09:46 | 51.43060 | 12.63004 | 4447 ft | 255 kts | 265° |
| 2026-05-05 09:46 | 51.42948 | 12.60340 | 4349 ft | 234 kts | 265° |
| 2026-05-05 09:46 | 51.42841 | 12.57863 | 4264 ft | 216 kts | 265° |
| 2026-05-05 09:47 | 51.42739 | 12.55526 | 4103 ft | 202 kts | 265° |
| 2026-05-05 09:47 | 51.42644 | 12.53344 | 3848 ft | 191 kts | 265° |
| 2026-05-05 09:47 | 51.42555 | 12.51294 | 3588 ft | 179 kts | 265° |
| 2026-05-05 09:47 | 51.42471 | 12.49383 | 3384 ft | 166 kts | 265° |
| 2026-05-05 09:48 | 51.42392 | 12.47613 | 3163 ft | 154 kts | 265° |
| 2026-05-05 09:48 | 51.42318 | 12.45928 | 2960 ft | 149 kts | 265° |
| 2026-05-05 09:48 | 51.42244 | 12.44274 | 2765 ft | 148 kts | 265° |
| 2026-05-05 09:48 | 51.42171 | 12.42635 | 2568 ft | 147 kts | 265° |
| 2026-05-05 09:49 | 51.42098 | 12.41005 | 2375 ft | 147 kts | 266° |
| 2026-05-05 09:49 | 51.42027 | 12.39380 | 2175 ft | 146 kts | 266° |
| 2026-05-05 09:49 | 51.41962 | 12.37773 | 2132 ft | 145 kts | 266° |
| 2026-05-05 09:49 | 51.41890 | 12.36153 | 1937 ft | 146 kts | 266° |
| 2026-05-05 09:50 | 51.41807 | 12.34535 | 1690 ft | 145 kts | 266° |
| 2026-05-05 09:50 | 51.41733 | 12.32920 | 1478 ft | 144 kts | 267° |
| 2026-05-05 09:50 | 51.41654 | 12.31326 | 1275 ft | 142 kts | 266° |
| 2026-05-05 09:50 | 51.41592 | 12.29770 | 1076 ft | 140 kts | 267° |
| 2026-05-05 09:51 | 51.41526 | 12.28217 | 853 ft | 138 kts | 266° |
| 2026-05-05 09:51 | 51.41456 | 12.26689 | 652 ft | 136 kts | 266° |
| 2026-05-05 09:51 | 51.41383 | 12.25180 | 488 ft | 135 kts | 265° |
| 2026-05-05 09:51 | 51.41320 | 12.23839 | 467 ft | 99 kts | 265° |
| 2026-05-05 09:52 | 51.41282 | 12.23010 | 462 ft | 56 kts | 266° |
| 2026-05-05 09:52 | 51.41256 | 12.22421 | 457 ft | 53 kts | 266° |
| 2026-05-05 09:52 | 51.41230 | 12.21839 | 455 ft | 50 kts | 266° |
| 2026-05-05 09:52 | 51.41207 | 12.21308 | 449 ft | 47 kts | 266° |
| 2026-05-05 09:53 | 51.41179 | 12.20807 | 440 ft | 44 kts | 264° |
| 2026-05-05 09:53 | 51.41204 | 12.20579 | 433 ft | 14 kts | 328° |
| 2026-05-05 09:53 | 51.41296 | 12.20592 | 441 ft | 13 kts | 17° |
| 2026-05-05 09:53 | 51.41400 | 12.20637 | 443 ft | 20 kts | 14° |
| 2026-05-05 09:54 | 51.41546 | 12.20699 | 434 ft | 23 kts | 14° |
| 2026-05-05 09:54 | 51.41714 | 12.20771 | 429 ft | 28 kts | 16° |
| 2026-05-05 09:54 | 51.41904 | 12.20854 | 422 ft | 24 kts | 14° |
| 2026-05-05 09:54 | 51.41977 | 12.21001 | 421 ft | 16 kts | 101° |
| 2026-05-05 09:55 | 51.41957 | 12.21140 | 428 ft | 13 kts | 104° |
| 2026-05-05 09:55 | 51.41937 | 12.21261 | 420 ft | 13 kts | 105° |
| 2026-05-05 09:55 | 51.41902 | 12.21469 | 433 ft | 22 kts | 105° |
| 2026-05-05 09:55 | 51.41865 | 12.21686 | 427 ft | 19 kts | 105° |
| 2026-05-05 09:56 | 51.41843 | 12.21837 | 443 ft | 6 kts | 77° |
| 2026-05-05 09:56 | 51.41872 | 12.21856 | 443 ft | 4 kts | 9° |
| 2026-05-05 09:56 | 51.41909 | 12.21870 | 433 ft | 7 kts | 13° |
| 2026-05-05 09:56 | 51.41927 | 12.21878 | 441 ft | 0 kts | 15° |